createdAt,value
2022-09-07T00:08:04.489Z,25.7
2022-09-07T00:18:12.483Z,25.5
2022-09-07T00:28:20.613Z,25.4
2022-09-07T00:38:28.680Z,25.2
2022-09-07T00:48:36.660Z,24.8
2022-09-07T00:58:44.765Z,24.7
2022-09-07T01:08:52.748Z,24.6
2022-09-07T01:19:00.821Z,24.7
2022-09-07T01:29:08.898Z,24.9
2022-09-07T01:39:17.035Z,24.9
2022-09-07T01:49:25.043Z,24.9
2022-09-07T01:59:33.114Z,25
2022-09-07T02:09:41.201Z,24.7
2022-09-07T02:19:49.399Z,25
2022-09-07T02:29:57.397Z,24.9
2022-09-07T02:40:05.639Z,24.5
2022-09-07T02:50:13.596Z,24.4
2022-09-07T03:00:21.630Z,24.1
2022-09-07T03:10:29.732Z,24.3
2022-09-07T03:20:37.929Z,24.2
2022-09-07T03:30:46.025Z,24
2022-09-07T03:40:54.090Z,23.5
2022-09-07T03:51:02.114Z,23.4
2022-09-07T04:01:10.086Z,23.7
2022-09-07T04:11:18.076Z,23.6
2022-09-07T04:21:26.337Z,23.6
2022-09-07T04:31:34.373Z,23.1
2022-09-07T04:41:42.368Z,23.2
2022-09-07T04:51:50.391Z,23.3
2022-09-07T05:01:58.487Z,23.1
2022-09-07T05:12:06.486Z,23.2
2022-09-07T05:22:14.681Z,23.4
2022-09-07T05:32:22.855Z,23.1
2022-09-07T05:42:30.744Z,23.1
2022-09-07T05:52:38.694Z,23.1
2022-09-07T06:02:46.917Z,23.5
2022-09-07T06:13:01.813Z,23.1
2022-09-07T06:22:56.211Z,23.4
2022-09-07T06:33:04.351Z,23.4
2022-09-07T06:43:12.897Z,23
2022-09-07T06:53:35.430Z,23.2
2022-09-07T07:03:27.538Z,23.5
2022-09-07T07:13:37.369Z,23.6
2022-09-07T07:23:45.343Z,24
2022-09-07T07:33:53.387Z,24.6
2022-09-07T07:44:01.083Z,26.4
2022-09-07T07:54:08.974Z,27.2
2022-09-07T08:04:16.885Z,28
2022-09-07T08:24:27.278Z,27.7
2022-09-07T08:44:38.419Z,28.2
2022-09-07T09:05:17.679Z,29.4
2022-09-07T09:24:59.655Z,30.5
2022-09-07T09:35:08.586Z,31.3
2022-09-07T09:45:17.470Z,31.4
2022-09-07T09:55:34.239Z,31.5
2022-09-07T10:05:35.837Z,31.6
2022-09-07T10:15:39.222Z,31.3
2022-09-07T10:25:42.772Z,31.7
2022-09-07T10:35:51.614Z,32
2022-09-07T10:46:00.554Z,31.8
2022-09-07T10:56:09.557Z,31.8
2022-09-07T11:06:18.699Z,32.5
2022-09-07T11:16:51.136Z,32.2
2022-09-07T11:26:34.996Z,31.7
2022-09-07T11:36:43.870Z,32
2022-09-07T11:46:52.900Z,31.7
2022-09-07T11:57:01.876Z,31.4
2022-09-07T12:07:10.695Z,31.1
2022-09-07T12:17:19.633Z,31.6
2022-09-07T12:27:28.554Z,31.8
2022-09-07T12:37:37.458Z,31.3
2022-09-07T12:47:46.354Z,31.5
2022-09-07T12:57:55.275Z,32.3
2022-09-07T13:08:08.559Z,32
2022-09-07T13:18:13.385Z,31.4
2022-09-07T13:28:16.829Z,31.9
2022-09-07T13:38:19.445Z,32.4
2022-09-07T13:48:21.379Z,31.5
2022-09-07T13:58:24.807Z,31.5
2022-09-07T14:08:24.977Z,31.7
2022-09-07T14:18:34.639Z,31.7
2022-09-07T14:28:43.585Z,31.5
2022-09-07T14:39:05.383Z,31.2
2022-09-07T14:49:00.029Z,31.3
2022-09-07T14:59:08.971Z,31.2
2022-09-07T15:09:18.028Z,31
2022-09-07T15:19:27.142Z,31.3
2022-09-07T15:29:36.035Z,31.8
2022-09-07T15:39:45.101Z,31.4
2022-09-07T15:49:54.230Z,30.7
2022-09-07T16:00:03.326Z,30.8
2022-09-07T16:10:12.258Z,30.8
2022-09-07T16:20:21.180Z,30.7
2022-09-07T16:30:29.944Z,30.4
2022-09-07T16:40:37.985Z,30.9
2022-09-07T16:50:39.917Z,30.4
2022-09-07T17:00:48.490Z,29.7
2022-09-07T17:10:49.563Z,29.9
2022-09-07T17:20:59.736Z,29.6
2022-09-07T17:30:58.963Z,29.5
2022-09-07T17:41:09.077Z,29.5
2022-09-07T17:51:08.128Z,29.7
2022-09-07T18:01:17.929Z,29.3
2022-09-07T18:11:46.148Z,29.5
2022-09-07T18:21:24.812Z,29.2
2022-09-07T18:31:29.134Z,29.5
2022-09-07T18:41:36.153Z,29.2
2022-09-07T18:52:51.409Z,29.2
2022-09-07T19:02:11.591Z,29.3
2022-09-07T19:11:52.201Z,29.6
2022-09-07T19:21:55.667Z,29.5
2022-09-07T19:31:57.359Z,29.3
2022-09-07T19:42:06.190Z,29.1
2022-09-07T19:52:15.152Z,29
2022-09-07T20:12:26.306Z,28.9
2022-09-07T20:22:35.409Z,28.8
2022-09-07T20:32:44.202Z,28.5
2022-09-07T20:42:53.122Z,28.3
2022-09-07T20:53:02.331Z,28.1
2022-09-07T21:03:11.240Z,28.1
2022-09-07T21:13:20.159Z,28.2
2022-09-07T21:23:31.006Z,28
2022-09-07T21:33:35.204Z,28.1
2022-09-07T21:43:44.112Z,27.8
2022-09-07T21:53:53.018Z,27.7
2022-09-07T22:04:01.866Z,27.6
2022-09-07T22:14:10.745Z,27.5
2022-09-07T22:24:19.969Z,27.5
2022-09-07T22:34:29.258Z,27.4
2022-09-07T22:44:37.239Z,27.2
2022-09-07T22:54:46.116Z,27
2022-09-07T23:04:55.037Z,26.9
2022-09-07T23:15:03.910Z,26.9
2022-09-07T23:25:14.512Z,26.9
2022-09-07T23:35:16.491Z,26.8
2022-09-07T23:45:21.917Z,26.7
2022-09-07T23:55:30.822Z,26.6
